sensor_id;sensor_type;location;lat;lon;timestamp;P1;durP1;ratioP1;P2;durP2;ratioP2
55732;SDS011;41637;52.364;9.910;2022-10-31T15:15:43;26.00;;;15.80;;
55732;SDS011;41637;52.364;9.910;2022-10-31T15:18:18;25.40;;;15.30;;
55732;SDS011;41637;52.364;9.910;2022-10-31T15:20:53;26.40;;;15.30;;
55732;SDS011;41637;52.364;9.910;2022-10-31T15:23:23;23.60;;;16.10;;
55732;SDS011;41637;52.364;9.910;2022-10-31T15:25:59;24.30;;;15.60;;
55732;SDS011;41637;52.364;9.910;2022-10-31T15:28:27;27.00;;;16.20;;
55732;SDS011;41637;52.364;9.910;2022-10-31T15:30:55;26.10;;;16.10;;
55732;SDS011;41637;52.364;9.910;2022-10-31T15:33:31;28.70;;;16.90;;
55732;SDS011;41637;52.364;9.910;2022-10-31T15:36:23;27.80;;;16.70;;
55732;SDS011;41637;52.364;9.910;2022-10-31T15:38:56;26.30;;;16.70;;
55732;SDS011;41637;52.364;9.910;2022-10-31T15:44:01;27.60;;;17.20;;
55732;SDS011;41637;52.364;9.910;2022-10-31T15:46:33;25.70;;;16.10;;
55732;SDS011;41637;52.364;9.910;2022-10-31T15:49:00;26.50;;;17.00;;
55732;SDS011;41637;52.364;9.910;2022-10-31T15:51:30;28.00;;;17.20;;
55732;SDS011;41637;52.364;9.910;2022-10-31T15:54:00;30.70;;;17.40;;
55732;SDS011;41637;52.364;9.910;2022-10-31T15:56:28;34.70;;;18.50;;
55732;SDS011;41637;52.364;9.910;2022-10-31T15:58:57;32.50;;;18.40;;
55732;SDS011;41637;52.364;9.910;2022-10-31T16:01:27;33.20;;;19.30;;
55732;SDS011;41637;52.364;9.910;2022-10-31T16:06:27;28.60;;;16.70;;
55732;SDS011;41637;52.364;9.910;2022-10-31T16:08:54;29.30;;;17.10;;
55732;SDS011;41637;52.364;9.910;2022-10-31T16:11:39;31.10;;;17.70;;
55732;SDS011;41637;52.364;9.910;2022-10-31T16:16:40;32.50;;;17.50;;
55732;SDS011;41637;52.364;9.910;2022-10-31T16:19:15;28.80;;;17.20;;
55732;SDS011;41637;52.364;9.910;2022-10-31T16:21:46;26.20;;;16.50;;
55732;SDS011;41637;52.364;9.910;2022-10-31T16:26:49;27.50;;;16.60;;
55732;SDS011;41637;52.364;9.910;2022-10-31T16:29:24;32.60;;;17.60;;
55732;SDS011;41637;52.364;9.910;2022-10-31T16:31:58;28.50;;;16.70;;
55732;SDS011;41637;52.364;9.910;2022-10-31T16:34:25;30.70;;;16.90;;
55732;SDS011;41637;52.364;9.910;2022-10-31T16:36:52;32.00;;;17.70;;
55732;SDS011;41637;52.364;9.910;2022-10-31T16:39:19;30.90;;;17.60;;
55732;SDS011;41637;52.364;9.910;2022-10-31T16:41:48;33.10;;;18.20;;
55732;SDS011;41637;52.364;9.910;2022-10-31T16:44:21;30.20;;;17.70;;
55732;SDS011;41637;52.364;9.910;2022-10-31T16:49:32;29.20;;;17.80;;
55732;SDS011;41637;52.364;9.910;2022-10-31T16:51:58;30.40;;;17.60;;
55732;SDS011;41637;52.364;9.910;2022-10-31T16:54:25;32.50;;;18.20;;
55732;SDS011;41637;52.364;9.910;2022-10-31T16:56:51;27.90;;;16.80;;
55732;SDS011;41637;52.364;9.910;2022-10-31T16:59:17;29.80;;;16.30;;
55732;SDS011;41637;52.364;9.910;2022-10-31T17:01:44;28.30;;;16.50;;
55732;SDS011;41637;52.364;9.910;2022-10-31T17:04:15;27.10;;;16.00;;
55732;SDS011;41637;52.364;9.910;2022-10-31T17:06:41;29.20;;;16.20;;
55732;SDS011;41637;52.364;9.910;2022-10-31T17:09:08;29.20;;;16.40;;
55732;SDS011;41637;52.364;9.910;2022-10-31T17:11:35;28.60;;;16.30;;
55732;SDS011;41637;52.364;9.910;2022-10-31T17:14:02;29.50;;;16.00;;
55732;SDS011;41637;52.364;9.910;2022-10-31T17:16:30;28.40;;;16.80;;
55732;SDS011;41637;52.364;9.910;2022-10-31T17:18:56;28.80;;;16.20;;
55732;SDS011;41637;52.364;9.910;2022-10-31T17:21:23;26.20;;;16.20;;
55732;SDS011;41637;52.364;9.910;2022-10-31T17:23:51;24.60;;;16.10;;
55732;SDS011;41637;52.364;9.910;2022-10-31T17:26:18;29.90;;;16.70;;
55732;SDS011;41637;52.364;9.910;2022-10-31T17:28:45;27.50;;;15.70;;
55732;SDS011;41637;52.364;9.910;2022-10-31T17:33:48;26.10;;;16.00;;
55732;SDS011;41637;52.364;9.910;2022-10-31T17:36:15;28.70;;;16.00;;
55732;SDS011;41637;52.364;9.910;2022-10-31T17:38:42;28.80;;;16.60;;
55732;SDS011;41637;52.364;9.910;2022-10-31T17:41:08;29.50;;;16.40;;
55732;SDS011;41637;52.364;9.910;2022-10-31T17:43:36;26.50;;;16.40;;
55732;SDS011;41637;52.364;9.910;2022-10-31T17:46:03;30.50;;;16.80;;
55732;SDS011;41637;52.364;9.910;2022-10-31T17:48:31;34.40;;;18.20;;
55732;SDS011;41637;52.364;9.910;2022-10-31T17:51:00;31.90;;;17.30;;
55732;SDS011;41637;52.364;9.910;2022-10-31T17:53:32;31.60;;;17.60;;
55732;SDS011;41637;52.364;9.910;2022-10-31T17:56:03;29.20;;;17.10;;
55732;SDS011;41637;52.364;9.910;2022-10-31T17:58:31;29.10;;;17.40;;
55732;SDS011;41637;52.364;9.910;2022-10-31T18:00:59;32.90;;;17.40;;
55732;SDS011;41637;52.364;9.910;2022-10-31T18:03:26;32.60;;;17.50;;
55732;SDS011;41637;52.364;9.910;2022-10-31T18:05:54;32.00;;;17.60;;
55732;SDS011;41637;52.364;9.910;2022-10-31T18:08:26;34.80;;;19.40;;
55732;SDS011;41637;52.364;9.910;2022-10-31T18:10:54;34.50;;;18.90;;
55732;SDS011;41637;52.364;9.910;2022-10-31T18:13:21;34.90;;;19.10;;
55732;SDS011;41637;52.364;9.910;2022-10-31T18:15:48;41.30;;;21.20;;
55732;SDS011;41637;52.364;9.910;2022-10-31T18:18:14;34.80;;;19.30;;
55732;SDS011;41637;52.364;9.910;2022-10-31T18:20:41;36.20;;;19.40;;
55732;SDS011;41637;52.364;9.910;2022-10-31T18:23:08;37.00;;;19.80;;
55732;SDS011;41637;52.364;9.910;2022-10-31T18:25:34;32.70;;;18.90;;
55732;SDS011;41637;52.364;9.910;2022-10-31T18:28:04;38.20;;;19.40;;
55732;SDS011;41637;52.364;9.910;2022-10-31T18:30:31;36.20;;;19.10;;
55732;SDS011;41637;52.364;9.910;2022-10-31T18:32:58;36.10;;;20.30;;
55732;SDS011;41637;52.364;9.910;2022-10-31T18:35:25;40.50;;;21.20;;
55732;SDS011;41637;52.364;9.910;2022-10-31T18:37:51;40.70;;;22.50;;
55732;SDS011;41637;52.364;9.910;2022-10-31T18:40:18;43.70;;;22.80;;
55732;SDS011;41637;52.364;9.910;2022-10-31T18:42:44;41.30;;;22.20;;
55732;SDS011;41637;52.364;9.910;2022-10-31T18:45:11;45.50;;;23.60;;
55732;SDS011;41637;52.364;9.910;2022-10-31T18:47:57;44.90;;;24.10;;
55732;SDS011;41637;52.364;9.910;2022-10-31T18:50:24;43.90;;;24.50;;
55732;SDS011;41637;52.364;9.910;2022-10-31T18:52:51;50.00;;;26.00;;
55732;SDS011;41637;52.364;9.910;2022-10-31T18:55:17;43.60;;;24.30;;
55732;SDS011;41637;52.364;9.910;2022-10-31T18:57:44;47.50;;;26.40;;
55732;SDS011;41637;52.364;9.910;2022-10-31T19:00:12;51.00;;;28.20;;
55732;SDS011;41637;52.364;9.910;2022-10-31T19:02:42;53.80;;;28.30;;
55732;SDS011;41637;52.364;9.910;2022-10-31T19:05:09;58.10;;;30.00;;
55732;SDS011;41637;52.364;9.910;2022-10-31T19:07:35;63.60;;;31.70;;
55732;SDS011;41637;52.364;9.910;2022-10-31T19:10:02;61.00;;;31.80;;
55732;SDS011;41637;52.364;9.910;2022-10-31T19:12:30;68.80;;;33.70;;
55732;SDS011;41637;52.364;9.910;2022-10-31T19:14:58;67.30;;;33.50;;
55732;SDS011;41637;52.364;9.910;2022-10-31T19:17:24;72.80;;;34.40;;
55732;SDS011;41637;52.364;9.910;2022-10-31T19:19:51;70.50;;;35.70;;
55732;SDS011;41637;52.364;9.910;2022-10-31T19:22:17;68.80;;;34.40;;
55732;SDS011;41637;52.364;9.910;2022-10-31T19:24:44;71.10;;;35.10;;
55732;SDS011;41637;52.364;9.910;2022-10-31T19:27:10;73.10;;;35.70;;
55732;SDS011;41637;52.364;9.910;2022-10-31T19:29:37;72.80;;;36.60;;
55732;SDS011;41637;52.364;9.910;2022-10-31T19:32:05;71.70;;;36.00;;
55732;SDS011;41637;52.364;9.910;2022-10-31T19:34:31;76.90;;;36.70;;
55732;SDS011;41637;52.364;9.910;2022-10-31T19:36:58;77.60;;;36.90;;
55732;SDS011;41637;52.364;9.910;2022-10-31T19:39:24;72.80;;;36.10;;
55732;SDS011;41637;52.364;9.910;2022-10-31T19:41:51;73.00;;;35.80;;
55732;SDS011;41637;52.364;9.910;2022-10-31T19:44:17;73.80;;;36.10;;
55732;SDS011;41637;52.364;9.910;2022-10-31T19:46:44;74.40;;;36.30;;
55732;SDS011;41637;52.364;9.910;2022-10-31T19:49:19;74.70;;;35.70;;
55732;SDS011;41637;52.364;9.910;2022-10-31T19:51:46;78.50;;;36.60;;
55732;SDS011;41637;52.364;9.910;2022-10-31T19:54:13;75.00;;;35.30;;
55732;SDS011;41637;52.364;9.910;2022-10-31T19:56:40;72.70;;;36.00;;
55732;SDS011;41637;52.364;9.910;2022-10-31T19:59:06;71.70;;;34.40;;
55732;SDS011;41637;52.364;9.910;2022-10-31T20:01:33;68.20;;;34.00;;
55732;SDS011;41637;52.364;9.910;2022-10-31T20:04:00;72.60;;;34.80;;
55732;SDS011;41637;52.364;9.910;2022-10-31T20:06:30;74.20;;;34.80;;
55732;SDS011;41637;52.364;9.910;2022-10-31T20:09:03;71.80;;;35.10;;
55732;SDS011;41637;52.364;9.910;2022-10-31T20:11:33;70.30;;;33.60;;
55732;SDS011;41637;52.364;9.910;2022-10-31T20:14:02;71.30;;;34.60;;
55732;SDS011;41637;52.364;9.910;2022-10-31T20:16:29;67.70;;;33.70;;
55732;SDS011;41637;52.364;9.910;2022-10-31T20:18:55;73.20;;;34.60;;
55732;SDS011;41637;52.364;9.910;2022-10-31T20:21:28;71.00;;;35.00;;
55732;SDS011;41637;52.364;9.910;2022-10-31T20:23:56;79.60;;;36.60;;
55732;SDS011;41637;52.364;9.910;2022-10-31T20:26:25;72.50;;;36.10;;
55732;SDS011;41637;52.364;9.910;2022-10-31T20:28:54;76.10;;;37.20;;
55732;SDS011;41637;52.364;9.910;2022-10-31T20:31:22;75.80;;;36.70;;
55732;SDS011;41637;52.364;9.910;2022-10-31T20:33:50;83.30;;;38.50;;
55732;SDS011;41637;52.364;9.910;2022-10-31T20:36:18;75.60;;;37.90;;
55732;SDS011;41637;52.364;9.910;2022-10-31T20:38:49;81.10;;;39.10;;
55732;SDS011;41637;52.364;9.910;2022-10-31T20:41:17;78.70;;;38.80;;
55732;SDS011;41637;52.364;9.910;2022-10-31T20:43:44;81.90;;;39.40;;
55732;SDS011;41637;52.364;9.910;2022-10-31T20:46:18;87.60;;;39.80;;
55732;SDS011;41637;52.364;9.910;2022-10-31T20:48:46;76.70;;;37.50;;
55732;SDS011;41637;52.364;9.910;2022-10-31T20:51:18;81.50;;;38.60;;
55732;SDS011;41637;52.364;9.910;2022-10-31T20:53:49;77.90;;;37.80;;
55732;SDS011;41637;52.364;9.910;2022-10-31T20:56:17;74.00;;;36.70;;
55732;SDS011;41637;52.364;9.910;2022-10-31T20:58:45;70.40;;;37.10;;
55732;SDS011;41637;52.364;9.910;2022-10-31T21:01:20;79.30;;;38.40;;
55732;SDS011;41637;52.364;9.910;2022-10-31T21:03:48;67.60;;;34.20;;
55732;SDS011;41637;52.364;9.910;2022-10-31T21:06:16;60.20;;;32.70;;
55732;SDS011;41637;52.364;9.910;2022-10-31T21:08:44;63.30;;;33.90;;
55732;SDS011;41637;52.364;9.910;2022-10-31T21:11:12;66.90;;;34.80;;
55732;SDS011;41637;52.364;9.910;2022-10-31T21:13:41;60.20;;;33.20;;
55732;SDS011;41637;52.364;9.910;2022-10-31T21:16:17;60.90;;;33.30;;
55732;SDS011;41637;52.364;9.910;2022-10-31T21:18:46;64.70;;;34.90;;
55732;SDS011;41637;52.364;9.910;2022-10-31T21:21:18;59.90;;;32.00;;
55732;SDS011;41637;52.364;9.910;2022-10-31T21:23:47;57.30;;;32.20;;
55732;SDS011;41637;52.364;9.910;2022-10-31T21:26:19;60.20;;;32.60;;
55732;SDS011;41637;52.364;9.910;2022-10-31T21:28:48;59.10;;;33.10;;
55732;SDS011;41637;52.364;9.910;2022-10-31T21:31:17;52.00;;;30.20;;
55732;SDS011;41637;52.364;9.910;2022-10-31T21:33:44;57.10;;;31.60;;
55732;SDS011;41637;52.364;9.910;2022-10-31T21:36:11;59.30;;;33.30;;
55732;SDS011;41637;52.364;9.910;2022-10-31T21:38:39;56.60;;;31.60;;
55732;SDS011;41637;52.364;9.910;2022-10-31T21:41:08;53.70;;;30.90;;
55732;SDS011;41637;52.364;9.910;2022-10-31T21:43:37;54.50;;;31.60;;
55732;SDS011;41637;52.364;9.910;2022-10-31T21:46:08;49.30;;;29.20;;
55732;SDS011;41637;52.364;9.910;2022-10-31T21:48:37;53.50;;;30.20;;
55732;SDS011;41637;52.364;9.910;2022-10-31T21:51:07;54.10;;;30.30;;
55732;SDS011;41637;52.364;9.910;2022-10-31T21:53:36;52.40;;;31.80;;
55732;SDS011;41637;52.364;9.910;2022-10-31T21:56:22;50.40;;;30.50;;
55732;SDS011;41637;52.364;9.910;2022-10-31T21:58:50;46.00;;;28.50;;
55732;SDS011;41637;52.364;9.910;2022-10-31T22:01:17;49.90;;;29.80;;
55732;SDS011;41637;52.364;9.910;2022-10-31T22:03:45;54.00;;;29.30;;
55732;SDS011;41637;52.364;9.910;2022-10-31T22:06:12;51.30;;;30.40;;
55732;SDS011;41637;52.364;9.910;2022-10-31T22:08:39;49.30;;;28.80;;
55732;SDS011;41637;52.364;9.910;2022-10-31T22:11:08;53.90;;;30.30;;
55732;SDS011;41637;52.364;9.910;2022-10-31T22:13:39;50.90;;;29.20;;
55732;SDS011;41637;52.364;9.910;2022-10-31T22:16:08;54.40;;;30.90;;
55732;SDS011;41637;52.364;9.910;2022-10-31T22:18:43;49.80;;;29.80;;
55732;SDS011;41637;52.364;9.910;2022-10-31T22:21:15;51.30;;;30.10;;
55732;SDS011;41637;52.364;9.910;2022-10-31T22:23:43;55.60;;;30.70;;
55732;SDS011;41637;52.364;9.910;2022-10-31T22:26:11;54.20;;;31.30;;
55732;SDS011;41637;52.364;9.910;2022-10-31T22:28:44;56.20;;;31.10;;
55732;SDS011;41637;52.364;9.910;2022-10-31T22:31:14;53.90;;;31.00;;
55732;SDS011;41637;52.364;9.910;2022-10-31T22:33:43;58.90;;;30.50;;
55732;SDS011;41637;52.364;9.910;2022-10-31T22:36:15;55.50;;;30.40;;
55732;SDS011;41637;52.364;9.910;2022-10-31T22:38:45;59.70;;;31.50;;
55732;SDS011;41637;52.364;9.910;2022-10-31T22:41:14;59.50;;;32.30;;
55732;SDS011;41637;52.364;9.910;2022-10-31T22:43:42;55.90;;;30.70;;
55732;SDS011;41637;52.364;9.910;2022-10-31T22:46:14;57.50;;;32.00;;
55732;SDS011;41637;52.364;9.910;2022-10-31T22:48:49;56.80;;;30.90;;
55732;SDS011;41637;52.364;9.910;2022-10-31T22:51:18;54.50;;;31.50;;
55732;SDS011;41637;52.364;9.910;2022-10-31T22:53:49;57.10;;;31.20;;
55732;SDS011;41637;52.364;9.910;2022-10-31T22:56:17;55.50;;;30.10;;
55732;SDS011;41637;52.364;9.910;2022-10-31T22:58:45;57.60;;;30.60;;
55732;SDS011;41637;52.364;9.910;2022-10-31T23:01:14;55.00;;;30.50;;
55732;SDS011;41637;52.364;9.910;2022-10-31T23:03:43;55.10;;;30.90;;
55732;SDS011;41637;52.364;9.910;2022-10-31T23:06:11;59.40;;;31.90;;
55732;SDS011;41637;52.364;9.910;2022-10-31T23:08:40;62.60;;;32.30;;
55732;SDS011;41637;52.364;9.910;2022-10-31T23:11:18;60.80;;;31.40;;
55732;SDS011;41637;52.364;9.910;2022-10-31T23:13:47;63.70;;;32.20;;
55732;SDS011;41637;52.364;9.910;2022-10-31T23:16:35;60.00;;;31.90;;
55732;SDS011;41637;52.364;9.910;2022-10-31T23:19:11;68.90;;;33.70;;
55732;SDS011;41637;52.364;9.910;2022-10-31T23:21:47;67.40;;;32.80;;
55732;SDS011;41637;52.364;9.910;2022-10-31T23:24:36;70.40;;;34.30;;
55732;SDS011;41637;52.364;9.910;2022-10-31T23:29:44;73.50;;;35.00;;
55732;SDS011;41637;52.364;9.910;2022-10-31T23:32:28;69.70;;;34.70;;
55732;SDS011;41637;52.364;9.910;2022-10-31T23:35:03;67.60;;;32.30;;
55732;SDS011;41637;52.364;9.910;2022-10-31T23:37:33;63.70;;;32.10;;
55732;SDS011;41637;52.364;9.910;2022-10-31T23:40:02;66.00;;;34.40;;
55732;SDS011;41637;52.364;9.910;2022-10-31T23:42:30;65.30;;;33.10;;
55732;SDS011;41637;52.364;9.910;2022-10-31T23:44:56;61.20;;;32.80;;
55732;SDS011;41637;52.364;9.910;2022-10-31T23:47:23;60.80;;;32.40;;
55732;SDS011;41637;52.364;9.910;2022-10-31T23:49:50;63.20;;;33.00;;
55732;SDS011;41637;52.364;9.910;2022-10-31T23:52:16;62.30;;;32.20;;
55732;SDS011;41637;52.364;9.910;2022-10-31T23:54:44;61.10;;;32.70;;
55732;SDS011;41637;52.364;9.910;2022-10-31T23:57:11;63.20;;;32.30;;
55732;SDS011;41637;52.364;9.910;2022-10-31T23:59:39;66.60;;;32.80;;
